Hickory Valley, Louisiana
Current Conditions -  °F | °C
As of 2:15 PM on Sunday 25 Jan 2015 (Local Time) from KRSN Reporting Station
Clear Clear  
Wind Chill: 18°   Ceiling: Unl
Heat Index: 18°   Visibility: 10mi
Dew Point:   Wind: 7mph
Humidity: 32%   Direction: 290°WNW
Pressure: 29.86"   Gusts: 24mph
Location:  32.0547°N, 92.4144°W
Report Text: KRSN 252015Z AUTO 29006G21KT 250V340 10SM CLR 18/01 A2986 RMK AO2 T01830014
Loading
Personal Weather Stations






























Interactive Weather Map New forecast layout! Learn more

10-Day Weather Forecast

Advertisements
Track Severe Weather on mobile